createdAt,value
2022-10-05T00:01:20.666Z,62.39
2022-10-05T00:03:48.857Z,62.67
2022-10-05T00:06:17.004Z,62.85
2022-10-05T00:08:45.278Z,62.23
2022-10-05T00:11:15.879Z,61.87
2022-10-05T00:13:44.037Z,60.85
2022-10-05T00:16:18.441Z,61.74
2022-10-05T00:18:50.007Z,62.10
2022-10-05T00:21:21.993Z,63.09
2022-10-05T00:23:50.403Z,63.21
2022-10-05T00:26:23.167Z,63.74
2022-10-05T00:28:51.660Z,63.35
2022-10-05T00:31:24.173Z,63.18
2022-10-05T00:33:53.124Z,63.83
2022-10-05T00:36:21.396Z,63.51
2022-10-05T00:38:49.451Z,63.28
2022-10-05T00:41:24.161Z,65.01
2022-10-05T00:44:20.969Z,63.47
2022-10-05T00:46:58.160Z,63.29
2022-10-05T00:49:48.847Z,64.13
2022-10-05T00:52:25.921Z,64.50
2022-10-05T00:55:00.497Z,64.28
2022-10-05T00:57:42.199Z,64.10
2022-10-05T01:00:14.249Z,63.91
2022-10-05T01:02:54.870Z,64.00
2022-10-05T01:05:35.045Z,64.56
2022-10-05T01:08:12.372Z,64.64
2022-10-05T01:10:46.254Z,64.09
2022-10-05T01:13:27.398Z,64.71
2022-10-05T01:16:04.315Z,65.03
2022-10-05T01:18:42.619Z,64.82
2022-10-05T01:21:19.322Z,64.48
2022-10-05T01:24:14.409Z,64.05
2022-10-05T01:27:08.576Z,64.20
2022-10-05T01:29:44.655Z,64.32
2022-10-05T01:32:23.844Z,64.82
2022-10-05T01:34:58.676Z,62.74
2022-10-05T01:37:31.972Z,62.88
2022-10-05T01:40:07.066Z,63.07
2022-10-05T01:42:43.854Z,62.45
2022-10-05T01:45:23.275Z,63.18
2022-10-05T01:47:56.476Z,63.14
2022-10-05T01:50:33.377Z,63.15
2022-10-05T01:53:09.219Z,64.94
2022-10-05T01:55:43.258Z,64.36
2022-10-05T01:58:23.092Z,63.96
2022-10-05T02:01:02.733Z,63.78
2022-10-05T02:03:36.767Z,63.03
2022-10-05T02:06:11.568Z,63.42
2022-10-05T02:08:45.157Z,63.81
2022-10-05T02:11:15.770Z,63.27
2022-10-05T02:13:48.513Z,63.73
2022-10-05T02:16:24.528Z,63.62
2022-10-05T02:18:57.216Z,64.24
2022-10-05T02:21:26.786Z,65.04
2022-10-05T02:23:59.937Z,64.95
2022-10-05T02:26:31.770Z,64.92
2022-10-05T02:29:04.272Z,65.06
2022-10-05T02:31:41.884Z,64.76
2022-10-05T02:34:25.695Z,64.12
2022-10-05T02:37:16.012Z,63.27
2022-10-05T02:40:00.959Z,64.09
2022-10-05T02:42:35.988Z,63.81
2022-10-05T02:45:14.112Z,63.97
2022-10-05T02:47:51.776Z,63.42
2022-10-05T02:50:28.040Z,64.31
2022-10-05T02:53:07.607Z,63.80
2022-10-05T02:55:48.149Z,64.23
2022-10-05T02:58:20.779Z,64.08
2022-10-05T03:00:56.006Z,64.14
2022-10-05T03:03:34.967Z,65.44
2022-10-05T03:06:06.416Z,65.09
2022-10-05T03:08:41.394Z,64.13
2022-10-05T03:11:16.204Z,63.78
2022-10-05T03:13:50.717Z,62.45
2022-10-05T03:16:36.350Z,62.92
2022-10-05T03:19:18.842Z,62.75
2022-10-05T03:21:57.650Z,63.15
2022-10-05T03:25:02.565Z,64.55
2022-10-05T03:27:41.575Z,65.32
2022-10-05T03:30:16.026Z,65.06
2022-10-05T03:32:56.334Z,65.09
2022-10-05T03:35:34.325Z,65.26
2022-10-05T03:38:11.924Z,64.77
2022-10-05T03:40:46.400Z,63.89
2022-10-05T03:43:29.346Z,64.71
2022-10-05T03:46:06.852Z,63.54
2022-10-05T03:48:41.113Z,64.29
2022-10-05T03:51:15.983Z,64.64
2022-10-05T03:53:50.883Z,65.00
2022-10-05T03:56:26.385Z,63.45
2022-10-05T03:58:58.691Z,62.95
2022-10-05T04:01:37.148Z,63.77
2022-10-05T04:04:10.922Z,63.53
2022-10-05T04:06:45.680Z,64.39
2022-10-05T04:09:17.814Z,63.89
2022-10-05T04:11:52.046Z,63.77
2022-10-05T04:14:25.183Z,63.14
2022-10-05T04:16:59.434Z,63.78
2022-10-05T04:19:38.036Z,64.24
2022-10-05T04:22:13.337Z,64.44
2022-10-05T04:24:47.393Z,65.00
2022-10-05T04:27:18.931Z,65.10
2022-10-05T04:29:53.922Z,66.71
2022-10-05T04:32:38.390Z,66.32
2022-10-05T04:35:27.192Z,67.18
2022-10-05T04:38:04.252Z,67.09
2022-10-05T04:40:42.731Z,67.00
2022-10-05T04:43:16.434Z,65.62
2022-10-05T04:45:57.870Z,66.64
2022-10-05T04:48:40.498Z,66.09
2022-10-05T04:51:22.635Z,66.46
2022-10-05T04:53:58.163Z,67.48
2022-10-05T04:56:35.630Z,67.26
2022-10-05T04:59:23.335Z,67.42
2022-10-05T05:02:06.908Z,66.84
2022-10-05T05:04:52.083Z,67.35
2022-10-05T05:07:36.516Z,67.11
2022-10-05T05:10:45.458Z,65.25
2022-10-05T05:13:29.377Z,66.20
2022-10-05T05:16:06.480Z,65.78
2022-10-05T05:19:07.397Z,65.37
2022-10-05T05:21:43.569Z,65.72
2022-10-05T05:24:20.501Z,65.74
2022-10-05T05:27:19.585Z,66.07
2022-10-05T05:29:58.485Z,64.70
2022-10-05T05:32:37.408Z,65.15
2022-10-05T05:35:25.110Z,65.06
2022-10-05T05:38:00.703Z,64.55
2022-10-05T05:40:34.816Z,63.95
2022-10-05T05:43:18.094Z,64.64
2022-10-05T05:45:57.936Z,63.50
2022-10-05T05:48:32.885Z,62.80
2022-10-05T05:51:08.469Z,62.73
2022-10-05T05:53:43.301Z,62.66
2022-10-05T05:56:14.897Z,62.43
2022-10-05T05:58:54.045Z,61.77
2022-10-05T06:01:33.185Z,60.78
2022-10-05T06:04:10.391Z,60.79
2022-10-05T06:06:43.860Z,59.70
2022-10-05T06:09:22.400Z,60.52
2022-10-05T06:12:04.010Z,62.00
2022-10-05T06:14:40.880Z,62.23
2022-10-05T06:17:16.318Z,61.01
2022-10-05T06:19:46.824Z,60.89
2022-10-05T06:22:19.265Z,60.74
2022-10-05T06:25:01.560Z,62.14
2022-10-05T06:27:37.762Z,61.94
2022-10-05T06:30:14.295Z,61.35
2022-10-05T06:33:06.188Z,60.54
2022-10-05T06:35:49.730Z,61.24
2022-10-05T06:38:36.501Z,61.56
2022-10-05T06:41:16.837Z,61.11
2022-10-05T06:43:57.934Z,60.25
2022-10-05T06:46:57.553Z,62.10
2022-10-05T06:50:10.444Z,60.88
2022-10-05T06:53:00.748Z,62.78
2022-10-05T06:55:39.480Z,62.23
2022-10-05T06:58:19.486Z,61.90
2022-10-05T07:00:53.797Z,59.71
2022-10-05T07:03:33.034Z,53.92
2022-10-05T07:06:12.187Z,53.72
2022-10-05T07:08:54.313Z,54.66
2022-10-05T07:11:40.255Z,52.50
2022-10-05T07:14:18.817Z,46.22
2022-10-05T07:17:01.716Z,43.68
2022-10-05T07:19:42.310Z,40.78
2022-10-05T07:22:30.418Z,39.26
2022-10-05T07:25:10.628Z,38.20
2022-10-05T07:27:49.490Z,38.49
2022-10-05T07:30:20.655Z,41.00
2022-10-05T07:32:59.794Z,44.57
2022-10-05T07:36:02.284Z,42.42
2022-10-05T07:38:34.559Z,42.01
2022-10-05T07:41:07.500Z,42.26
2022-10-05T07:46:51.398Z,38.80
2022-10-05T07:49:31.663Z,38.35
2022-10-05T07:52:04.335Z,38.85
2022-10-05T07:54:45.647Z,37.51
2022-10-05T07:57:25.418Z,37.10
2022-10-05T08:00:01.682Z,36.18
2022-10-05T08:02:48.102Z,37.27
2022-10-05T08:05:24.122Z,34.61
2022-10-05T08:08:02.267Z,36.19
2022-10-05T08:10:37.199Z,38.59
2022-10-05T08:13:15.024Z,41.94
2022-10-05T08:15:47.505Z,40.53
2022-10-05T08:18:21.142Z,41.42
2022-10-05T08:20:53.478Z,41.77
2022-10-05T08:23:26.566Z,41.16
2022-10-05T08:26:13.118Z,41.38
2022-10-05T08:28:47.198Z,41.75
2022-10-05T08:31:22.606Z,42.93
2022-10-05T08:33:59.907Z,42.61
2022-10-05T08:36:53.003Z,45.81
2022-10-05T08:39:28.145Z,45.12
2022-10-05T08:42:22.997Z,44.55
2022-10-05T08:45:11.944Z,46.11
2022-10-05T08:48:06.059Z,46.40
2022-10-05T08:51:09.071Z,45.03
2022-10-05T08:54:00.154Z,44.64
2022-10-05T08:56:42.670Z,45.25
2022-10-05T08:59:36.876Z,45.90
2022-10-05T09:02:21.225Z,46.73
2022-10-05T09:05:12.264Z,47.43
2022-10-05T09:08:09.212Z,47.12
2022-10-05T09:11:02.519Z,47.73
2022-10-05T09:13:53.653Z,48.10
2022-10-05T09:16:51.183Z,48.02
2022-10-05T09:19:55.012Z,48.80
2022-10-05T09:22:36.662Z,48.38
2022-10-05T09:25:22.705Z,49.18
2022-10-05T09:27:57.126Z,49.29
2022-10-05T09:31:05.027Z,49.48
2022-10-05T09:33:58.110Z,49.80
2022-10-05T09:37:07.942Z,49.18
2022-10-05T09:40:00.450Z,49.24
2022-10-05T09:42:53.819Z,51.56
2022-10-05T09:45:50.657Z,50.06
2022-10-05T09:48:46.335Z,48.14
2022-10-05T09:52:00.378Z,47.49
2022-10-05T09:55:09.156Z,47.24
2022-10-05T09:57:57.415Z,47.06
2022-10-05T10:00:38.449Z,42.70
2022-10-05T10:03:45.161Z,41.84
2022-10-05T10:06:38.130Z,39.21
2022-10-05T10:09:21.990Z,41.83
2022-10-05T10:12:10.078Z,41.39
2022-10-05T10:15:14.193Z,43.41
2022-10-05T10:18:01.788Z,44.21
2022-10-05T10:20:46.064Z,43.40
2022-10-05T10:24:15.281Z,41.20
2022-10-05T10:27:03.423Z,41.91
2022-10-05T10:30:10.375Z,41.01
2022-10-05T10:33:15.915Z,44.39
2022-10-05T10:35:52.046Z,45.50
2022-10-05T10:38:40.341Z,44.10
2022-10-05T10:41:45.139Z,45.04
2022-10-05T10:44:59.093Z,46.34
2022-10-05T10:47:47.943Z,46.28
2022-10-05T10:50:51.977Z,45.44
2022-10-05T10:53:44.760Z,44.34
2022-10-05T10:56:39.074Z,42.70
2022-10-05T10:59:33.232Z,44.00
2022-10-05T11:02:23.030Z,41.09
2022-10-05T11:05:05.399Z,42.49
2022-10-05T11:07:59.290Z,43.10
2022-10-05T11:10:59.971Z,39.28
2022-10-05T11:13:40.708Z,39.84
2022-10-05T11:16:28.909Z,38.30
2022-10-05T11:19:16.347Z,40.70
2022-10-05T11:22:00.748Z,41.53
2022-10-05T11:24:50.882Z,40.56
2022-10-05T11:27:47.248Z,39.96
2022-10-05T11:30:27.616Z,41.82
2022-10-05T11:33:32.304Z,39.95
2022-10-05T11:36:27.119Z,40.87
2022-10-05T11:39:21.117Z,40.36
2022-10-05T11:42:15.824Z,41.50
2022-10-05T11:45:23.481Z,42.58
2022-10-05T11:48:25.663Z,42.75
2022-10-05T11:51:18.544Z,44.19
2022-10-05T11:53:53.007Z,43.87
2022-10-05T11:56:28.068Z,43.44
2022-10-05T11:59:02.802Z,43.07
2022-10-05T12:01:39.373Z,42.08
2022-10-05T12:04:18.503Z,42.71
2022-10-05T12:07:08.599Z,43.60
2022-10-05T12:10:16.928Z,43.20
2022-10-05T12:13:02.716Z,41.67
2022-10-05T12:15:37.715Z,41.96
2022-10-05T12:18:13.732Z,43.08
2022-10-05T12:20:48.658Z,43.69
2022-10-05T12:23:23.678Z,43.16
2022-10-05T12:25:58.904Z,42.34
2022-10-05T12:28:34.416Z,42.62
2022-10-05T12:31:17.097Z,43.11
2022-10-05T12:33:55.645Z,42.97
2022-10-05T12:36:59.310Z,42.66
2022-10-05T12:39:33.641Z,41.97
2022-10-05T12:42:15.432Z,42.26
2022-10-05T12:45:06.175Z,42.42
2022-10-05T12:47:42.797Z,42.31
2022-10-05T12:50:21.546Z,41.76
2022-10-05T12:53:02.945Z,43.11
2022-10-05T12:55:42.209Z,43.53
2022-10-05T12:58:24.078Z,44.35
2022-10-05T13:00:58.545Z,44.59
2022-10-05T13:03:31.867Z,45.12
2022-10-05T13:06:11.204Z,45.41
2022-10-05T13:08:50.943Z,46.29
2022-10-05T13:11:28.341Z,46.27
2022-10-05T13:14:10.964Z,45.67
2022-10-05T13:16:46.066Z,46.63
2022-10-05T13:19:30.508Z,45.60
2022-10-05T13:22:25.542Z,46.74
2022-10-05T13:25:01.409Z,46.95
2022-10-05T13:27:36.843Z,47.27
2022-10-05T13:30:14.652Z,46.92
2022-10-05T13:32:48.061Z,46.51
2022-10-05T13:35:31.170Z,45.68
2022-10-05T13:38:08.820Z,45.12
2022-10-05T13:40:43.400Z,46.70
2022-10-05T13:43:23.440Z,46.86
2022-10-05T13:45:57.544Z,46.14
2022-10-05T13:48:46.408Z,45.83
2022-10-05T13:51:22.199Z,45.90
2022-10-05T13:53:59.011Z,46.68
2022-10-05T13:56:31.749Z,46.33
2022-10-05T13:59:16.042Z,47.74
2022-10-05T14:01:54.074Z,46.19
2022-10-05T14:04:26.156Z,46.13
2022-10-05T14:06:54.660Z,46.07
2022-10-05T14:09:31.586Z,46.67
2022-10-05T14:12:15.850Z,47.42
2022-10-05T14:14:48.966Z,46.79
2022-10-05T14:17:19.017Z,47.45
2022-10-05T14:19:51.220Z,47.19
2022-10-05T14:22:23.350Z,46.99
2022-10-05T14:24:56.061Z,47.41
2022-10-05T14:27:26.793Z,48.17
2022-10-05T14:30:02.314Z,47.99
2022-10-05T14:32:34.579Z,48.31
2022-10-05T14:35:15.162Z,47.67
2022-10-05T14:37:52.939Z,47.11
2022-10-05T14:40:41.678Z,46.49
2022-10-05T14:43:27.653Z,48.29
2022-10-05T14:45:59.012Z,48.64
2022-10-05T14:48:29.008Z,47.45
2022-10-05T14:50:59.553Z,47.41
2022-10-05T14:53:39.206Z,50.93
2022-10-05T14:56:23.474Z,49.49
2022-10-05T14:59:06.985Z,49.22
2022-10-05T15:01:40.054Z,48.26
2022-10-05T15:04:23.354Z,49.69
2022-10-05T15:07:04.197Z,51.12
2022-10-05T15:09:56.922Z,50.56
2022-10-05T15:12:32.411Z,51.75
2022-10-05T15:15:07.761Z,52.12
2022-10-05T15:17:44.567Z,51.96
2022-10-05T15:20:24.602Z,51.53
2022-10-05T15:23:00.456Z,53.36
2022-10-05T15:25:37.137Z,51.37
2022-10-05T15:28:16.487Z,52.08
2022-10-05T15:30:54.000Z,50.61
2022-10-05T15:33:32.555Z,50.75
2022-10-05T15:36:11.322Z,50.10
2022-10-05T15:38:50.081Z,48.93
2022-10-05T15:41:24.920Z,49.24
2022-10-05T15:44:09.304Z,49.82
2022-10-05T15:46:47.720Z,50.36
2022-10-05T15:49:28.658Z,51.38
2022-10-05T15:52:04.710Z,50.54
2022-10-05T15:55:01.779Z,52.18
2022-10-05T15:57:39.860Z,54.53
2022-10-05T16:00:12.912Z,54.38
2022-10-05T16:02:51.332Z,55.21
2022-10-05T16:05:45.782Z,54.59
2022-10-05T16:08:42.606Z,55.30
2022-10-05T16:11:20.545Z,55.22
2022-10-05T16:13:59.793Z,56.41
2022-10-05T16:16:39.361Z,55.07
2022-10-05T16:19:14.917Z,55.54
2022-10-05T16:21:51.618Z,56.09
2022-10-05T16:24:42.581Z,55.87
2022-10-05T16:27:20.673Z,56.74
2022-10-05T16:29:58.041Z,56.86
2022-10-05T16:32:32.043Z,57.25
2022-10-05T16:35:07.862Z,56.82
2022-10-05T16:37:45.352Z,56.75
2022-10-05T16:40:22.494Z,57.66
2022-10-05T16:43:02.397Z,57.33
2022-10-05T16:45:48.424Z,58.38
2022-10-05T16:48:23.539Z,57.59
2022-10-05T16:51:03.927Z,57.75
2022-10-05T16:53:39.208Z,57.96
2022-10-05T16:56:11.197Z,57.38
2022-10-05T16:58:57.768Z,57.84
2022-10-05T17:01:42.171Z,58.85
2022-10-05T17:04:23.703Z,58.55
2022-10-05T17:07:21.170Z,59.27
2022-10-05T17:10:15.748Z,60.69
2022-10-05T17:12:53.856Z,60.43
2022-10-05T17:15:34.333Z,60.13
2022-10-05T17:18:16.649Z,60.04
2022-10-05T17:20:50.091Z,59.79
2022-10-05T17:23:29.286Z,60.13
2022-10-05T17:26:06.293Z,60.23
2022-10-05T17:28:40.664Z,60.38
2022-10-05T17:31:53.888Z,60.15
2022-10-05T17:34:30.667Z,60.77
2022-10-05T17:37:15.705Z,60.80
2022-10-05T17:39:51.941Z,61.54
2022-10-05T17:42:57.913Z,61.13
2022-10-05T17:46:06.926Z,61.23
2022-10-05T17:49:06.846Z,60.50
2022-10-05T17:52:15.406Z,60.90
2022-10-05T17:55:27.725Z,60.65
2022-10-05T17:57:59.933Z,61.08
2022-10-05T18:00:42.003Z,61.85
2022-10-05T18:03:43.109Z,59.93
2022-10-05T18:06:37.700Z,60.39
2022-10-05T18:09:37.657Z,59.85
2022-10-05T18:12:37.568Z,60.02
2022-10-05T18:15:21.420Z,59.86
2022-10-05T18:17:53.067Z,60.43
2022-10-05T18:20:32.648Z,61.25
2022-10-05T18:23:35.686Z,61.27
2022-10-05T18:26:09.464Z,60.50
2022-10-05T18:28:51.997Z,59.47
2022-10-05T18:31:31.554Z,60.20
2022-10-05T18:34:21.403Z,59.79
2022-10-05T18:37:19.300Z,60.16
2022-10-05T18:40:05.087Z,60.14
2022-10-05T18:42:42.128Z,60.63
2022-10-05T18:45:24.806Z,60.23
2022-10-05T18:48:10.394Z,59.36
2022-10-05T18:50:45.116Z,60.33
2022-10-05T18:53:27.063Z,59.89
2022-10-05T18:56:02.324Z,59.52
2022-10-05T18:58:37.843Z,59.78
2022-10-05T19:01:24.530Z,60.72
2022-10-05T19:04:04.836Z,60.46
2022-10-05T19:06:43.140Z,60.35
2022-10-05T19:09:23.893Z,59.67
2022-10-05T19:12:01.129Z,59.72
2022-10-05T19:14:38.506Z,59.82
2022-10-05T19:17:24.080Z,60.91
2022-10-05T19:20:17.374Z,61.43
2022-10-05T19:23:02.188Z,61.12
2022-10-05T19:25:38.685Z,60.11
2022-10-05T19:28:20.588Z,60.41
2022-10-05T19:31:25.377Z,60.79
2022-10-05T19:34:07.805Z,60.62
2022-10-05T19:36:49.918Z,60.34
2022-10-05T19:39:28.290Z,60.49
2022-10-05T19:42:13.621Z,60.30
2022-10-05T19:44:55.989Z,61.30
2022-10-05T19:47:38.872Z,60.47
2022-10-05T19:50:22.712Z,61.17
2022-10-05T19:52:57.882Z,60.60
2022-10-05T19:55:32.724Z,60.50
2022-10-05T19:58:01.277Z,60.80
2022-10-05T20:00:31.667Z,59.98
2022-10-05T20:03:11.999Z,60.12
2022-10-05T20:05:40.519Z,60.80
2022-10-05T20:08:17.190Z,61.85
2022-10-05T20:10:46.035Z,62.24
2022-10-05T20:13:22.430Z,60.96
2022-10-05T20:16:26.992Z,62.01
2022-10-05T20:19:14.951Z,61.71
2022-10-05T20:21:48.788Z,63.25
2022-10-05T20:24:20.246Z,62.99
2022-10-05T20:27:05.009Z,62.71
2022-10-05T20:29:36.443Z,62.24
2022-10-05T20:32:08.180Z,62.06
2022-10-05T20:34:37.760Z,61.77
2022-10-05T20:37:06.074Z,62.49
2022-10-05T20:39:35.425Z,63.82
2022-10-05T20:42:03.801Z,63.18
2022-10-05T20:44:32.205Z,62.53
2022-10-05T20:47:01.438Z,62.67
2022-10-05T20:49:31.142Z,62.89
2022-10-05T20:51:59.911Z,63.51
2022-10-05T20:54:28.481Z,65.43
2022-10-05T20:56:58.148Z,64.12
2022-10-05T20:59:26.720Z,64.63
2022-10-05T21:01:54.817Z,63.93
2022-10-05T21:04:25.174Z,63.63
2022-10-05T21:06:54.238Z,64.62
2022-10-05T21:09:22.415Z,65.11
2022-10-05T21:11:52.911Z,65.44
2022-10-05T21:14:23.384Z,64.74
2022-10-05T21:16:52.452Z,65.73
2022-10-05T21:19:20.549Z,64.97
2022-10-05T21:21:48.650Z,65.59
2022-10-05T21:24:17.397Z,65.63
2022-10-05T21:26:46.073Z,64.88
2022-10-05T21:29:14.278Z,66.23
2022-10-05T21:31:44.309Z,66.10
2022-10-05T21:34:12.461Z,67.21
2022-10-05T21:36:40.638Z,66.68
2022-10-05T21:39:08.670Z,67.44
2022-10-05T21:41:36.710Z,66.70
2022-10-05T21:44:06.351Z,66.75
2022-10-05T21:46:36.987Z,66.15
2022-10-05T21:49:06.834Z,65.34
2022-10-05T21:51:36.523Z,65.71
2022-10-05T21:54:10.747Z,65.32
2022-10-05T21:56:41.673Z,65.01
2022-10-05T21:59:12.562Z,65.06
2022-10-05T22:01:40.648Z,64.82
2022-10-05T22:04:10.072Z,64.44
2022-10-05T22:06:38.237Z,64.96
2022-10-05T22:09:06.493Z,64.44
2022-10-05T22:11:34.510Z,64.54
2022-10-05T22:14:03.233Z,64.11
2022-10-05T22:16:33.968Z,63.86
2022-10-05T22:19:04.949Z,63.20
2022-10-05T22:21:37.938Z,64.01
2022-10-05T22:24:06.591Z,63.62
2022-10-05T22:26:36.039Z,63.79
2022-10-05T22:29:04.836Z,63.30
2022-10-05T22:34:25.265Z,63.18
2022-10-05T22:36:55.145Z,62.79
2022-10-05T22:39:23.161Z,63.07
2022-10-05T22:41:51.718Z,64.26
2022-10-05T22:44:19.702Z,64.04
2022-10-05T22:46:47.732Z,63.99
2022-10-05T22:49:15.853Z,63.53
2022-10-05T22:51:43.803Z,64.12
2022-10-05T22:54:13.420Z,64.30
2022-10-05T22:56:41.788Z,64.62
2022-10-05T22:59:09.833Z,65.13
2022-10-05T23:01:37.823Z,64.09
2022-10-05T23:04:07.921Z,64.23
2022-10-05T23:06:35.964Z,64.45
2022-10-05T23:09:03.956Z,64.86
2022-10-05T23:11:33.357Z,65.27
2022-10-05T23:14:01.738Z,64.78
2022-10-05T23:16:30.270Z,64.73
2022-10-05T23:18:59.157Z,65.05
2022-10-05T23:21:30.454Z,65.36
2022-10-05T23:23:58.519Z,65.19
2022-10-05T23:26:27.733Z,65.80
2022-10-05T23:28:57.107Z,65.76
2022-10-05T23:31:51.352Z,65.33
2022-10-05T23:34:20.093Z,65.95
2022-10-05T23:36:48.070Z,67.36
2022-10-05T23:39:16.311Z,65.40
2022-10-05T23:41:44.517Z,65.78
2022-10-05T23:44:13.895Z,66.10
2022-10-05T23:46:41.860Z,65.77
2022-10-05T23:49:09.938Z,66.00
2022-10-05T23:51:37.970Z,66.11
2022-10-05T23:54:06.041Z,66.39
2022-10-05T23:56:34.071Z,66.19
2022-10-05T23:59:02.282Z,67.02
